createdAt,value
2022-07-31T00:06:46.422Z,1.90
2022-07-31T00:17:08.014Z,1.73
2022-07-31T00:27:29.652Z,1.50
2022-07-31T00:37:54.809Z,1.42
2022-07-31T00:48:23.892Z,1.40
2022-07-31T00:58:45.432Z,1.50
2022-07-31T01:09:07.011Z,1.23
2022-07-31T01:19:37.886Z,1.50
2022-07-31T01:30:03.550Z,1.50
2022-07-31T01:40:35.592Z,1.40
2022-07-31T01:50:58.906Z,1.70
2022-07-31T02:01:27.023Z,1.60
2022-07-31T02:11:54.440Z,1.60
2022-07-31T02:22:16.836Z,1.58
2022-07-31T02:32:39.327Z,1.60
2022-07-31T02:43:01.100Z,1.65
2022-07-31T02:53:24.758Z,1.60
2022-07-31T03:03:46.290Z,1.52
2022-07-31T03:14:10.568Z,1.40
2022-07-31T03:24:32.223Z,1.52
2022-07-31T03:34:56.959Z,1.73
2022-07-31T03:45:20.888Z,1.77
2022-07-31T03:55:44.055Z,1.40
2022-07-31T04:06:05.635Z,1.70
2022-07-31T04:16:27.179Z,1.80
2022-07-31T04:26:50.510Z,2.03
2022-07-31T04:37:12.093Z,2.20
2022-07-31T04:47:33.588Z,2.30
2022-07-31T04:57:55.118Z,2.67
2022-07-31T05:08:16.677Z,2.72
2022-07-31T05:18:38.309Z,2.13
2022-07-31T05:29:00.188Z,2.25
2022-07-31T05:39:21.756Z,2.35
2022-07-31T05:49:43.397Z,2.67
2022-07-31T06:00:05.690Z,2.47
2022-07-31T06:10:28.285Z,2.42
2022-07-31T06:20:49.893Z,2.10
2022-07-31T06:31:21.664Z,2.05
2022-07-31T06:41:49.294Z,2.25
2022-07-31T06:52:10.924Z,2.03
2022-07-31T07:02:32.475Z,2.10
2022-07-31T07:12:54.326Z,2.25
2022-07-31T07:23:15.935Z,1.90
2022-07-31T07:33:41.263Z,2.10
2022-07-31T07:44:05.135Z,1.70
2022-07-31T07:54:30.027Z,2.10
2022-07-31T08:04:52.016Z,1.80
2022-07-31T08:15:13.568Z,2.00
2022-07-31T08:25:35.104Z,1.88
2022-07-31T08:35:59.056Z,1.77
2022-07-31T08:46:22.138Z,1.80
2022-07-31T08:56:44.015Z,2.20
2022-07-31T09:07:06.210Z,1.63
2022-07-31T09:17:53.711Z,1.90
2022-07-31T09:28:15.917Z,1.85
2022-07-31T09:38:43.431Z,1.88
2022-07-31T09:49:05.196Z,2.00
2022-07-31T09:59:26.865Z,2.03
2022-07-31T10:09:48.727Z,2.00
2022-07-31T10:20:17.384Z,2.20
2022-07-31T10:30:39.119Z,2.08
2022-07-31T10:41:17.345Z,2.15
2022-07-31T10:51:50.107Z,2.25
2022-07-31T11:02:11.804Z,1.95
2022-07-31T11:12:33.444Z,2.00
2022-07-31T11:23:06.422Z,2.50
2022-07-31T11:33:42.170Z,3.33
2022-07-31T11:44:04.973Z,3.63
2022-07-31T11:54:26.744Z,4.53
2022-07-31T12:04:49.227Z,3.88
2022-07-31T12:15:18.863Z,2.40
2022-07-31T12:25:42.230Z,2.50
2022-07-31T12:36:12.309Z,3.17
2022-07-31T12:46:36.749Z,3.60
2022-07-31T12:56:58.279Z,3.40
2022-07-31T13:07:19.892Z,3.85
2022-07-31T13:17:47.792Z,4.78
2022-07-31T13:28:12.373Z,4.75
2022-07-31T13:38:34.059Z,6.35
2022-07-31T13:48:59.118Z,7.00
2022-07-31T13:59:21.535Z,9.25
2022-07-31T14:09:51.473Z,10.32
2022-07-31T14:20:17.183Z,12.20
2022-07-31T14:30:45.592Z,13.40
2022-07-31T14:41:08.037Z,11.50
2022-07-31T14:51:29.628Z,9.88
2022-07-31T15:01:51.150Z,10.98
2022-07-31T15:12:16.762Z,11.38
2022-07-31T15:22:38.374Z,11.90
2022-07-31T15:33:02.172Z,12.88
2022-07-31T15:43:23.714Z,12.35
2022-07-31T15:53:45.211Z,11.80
2022-07-31T16:04:16.609Z,11.88
2022-07-31T16:14:38.579Z,9.27
2022-07-31T16:25:00.331Z,8.30
2022-07-31T16:35:22.553Z,8.65
2022-07-31T16:45:44.137Z,8.98
2022-07-31T16:56:06.462Z,8.63
2022-07-31T17:06:36.346Z,9.50
2022-07-31T17:16:59.276Z,9.00
2022-07-31T17:27:22.511Z,9.98
2022-07-31T17:37:45.178Z,10.13
2022-07-31T17:48:07.813Z,10.35
2022-07-31T17:58:29.370Z,11.25
2022-07-31T18:08:51.202Z,10.43
2022-07-31T18:19:13.614Z,10.55
2022-07-31T18:29:35.176Z,11.27
2022-07-31T18:39:59.581Z,10.32
2022-07-31T18:51:00.587Z,10.13
2022-07-31T19:01:03.496Z,9.20
2022-07-31T19:11:25.148Z,5.93
2022-07-31T19:21:46.724Z,4.70
2022-07-31T19:32:08.613Z,2.42
2022-07-31T19:42:30.317Z,1.42
2022-07-31T19:52:52.626Z,1.20
2022-07-31T20:03:14.308Z,1.30
2022-07-31T20:13:38.526Z,1.20
2022-07-31T20:24:01.421Z,1.10
2022-07-31T20:34:23.632Z,1.20
2022-07-31T20:44:45.321Z,0.98
2022-07-31T20:55:07.070Z,0.88
2022-07-31T21:05:30.646Z,0.70
2022-07-31T21:15:53.198Z,0.60
2022-07-31T21:26:15.582Z,0.77
2022-07-31T21:36:37.430Z,0.55
2022-07-31T21:47:01.478Z,0.80
2022-07-31T21:57:25.236Z,0.75
2022-07-31T22:07:49.608Z,0.80
2022-07-31T22:18:11.374Z,0.50
2022-07-31T22:28:33.070Z,0.73
2022-07-31T22:38:55.042Z,0.80
2022-07-31T22:49:18.106Z,0.82
2022-07-31T22:59:40.084Z,1.10
2022-07-31T23:10:02.414Z,1.00
2022-07-31T23:20:23.948Z,1.00
2022-07-31T23:30:45.494Z,1.33
2022-07-31T23:41:07.457Z,1.80
2022-07-31T23:51:29.054Z,1.77
